Time;durP1;ratioP1;P1;durP2;ratioP2;P2;SDS_P1;SDS_P2;PMS_P1;PMS_P2;Temp;Humidity;BMP_temperature;BMP_pressure;BME280_temperature;BME280_humidity;BME280_pressure;Samples;Min_cycle;Max_cycle;Signal;HPM_P1;HPM_P2
2021/12/27 00:01:14;;;;;;;61.53;16.38;;;;;;;-149.78;100.00;50667.03;5116851;28;20047;-69
2021/12/27 00:03:40;;;;;;;62.72;14.93;;;;;;;-149.78;100.00;50625.94;5116542;28;20526;-68
2021/12/27 00:06:09;;;;;;;70.05;15.80;;;;;;;-149.78;100.00;50663.13;5116194;28;20070;-68
2021/12/27 00:08:41;;;;;;;76.88;20.00;;;;;;;-149.78;100.00;50614.22;5116022;28;20534;-68
2021/12/27 00:11:09;;;;;;;67.90;15.25;;;;;;;-149.78;100.00;50651.38;5116231;28;20375;-65
2021/12/27 00:13:35;;;;;;;65.65;16.33;;;;;;;-149.78;100.00;50657.25;5116411;28;20393;-68
2021/12/27 00:16:01;;;;;;;85.40;21.88;;;;;;;-149.78;100.00;50651.38;5115786;28;20468;-65
2021/12/27 00:18:27;;;;;;;59.58;14.60;;;;;;;-149.78;100.00;50663.13;5116111;28;20060;-64
2021/12/27 00:20:53;;;;;;;78.00;20.23;;;;;;;-149.78;100.00;50643.56;5116197;28;20080;-68
2021/12/27 00:23:19;;;;;;;85.68;24.10;;;;;;;-149.78;100.00;50651.38;5115931;28;20096;-65
2021/12/27 00:25:45;;;;;;;113.38;32.25;;;;;;;-149.78;100.00;50659.19;5098144;28;20441;-68
2021/12/27 00:28:11;;;;;;;81.43;23.02;;;;;;;-149.78;100.00;50668.97;5097926;28;20412;-68
2021/12/27 00:30:38;;;;;;;74.95;24.13;;;;;;;-149.78;100.00;50631.81;5098140;28;20028;-68
2021/12/27 00:33:04;;;;;;;74.22;22.27;;;;;;;-149.78;100.00;50672.91;5114167;28;20838;-68
2021/12/27 00:35:32;;;;;;;58.63;17.30;;;;;;;-149.78;100.00;50659.19;5115412;28;20408;-68
2021/12/27 00:37:59;;;;;;;60.00;14.68;;;;;;;-149.78;100.00;50670.94;5114862;28;20046;-69
2021/12/27 00:40:25;;;;;;;60.90;16.10;;;;;;;-149.78;100.00;50657.25;5114719;28;20117;-69
2021/12/27 00:42:51;;;;;;;47.33;12.63;;;;;;;-149.78;100.00;50637.69;5097029;28;20485;-69
2021/12/27 00:45:20;;;;;;;79.65;27.33;;;;;;;-149.78;100.00;50655.28;5115616;28;20493;-68
2021/12/27 00:47:45;;;;;;;52.75;14.43;;;;;;;-149.78;100.00;50651.38;5115734;28;20474;-68
2021/12/27 00:50:11;;;;;;;54.80;14.43;;;;;;;-149.78;100.00;50690.50;5097604;28;20039;-68
2021/12/27 00:52:37;;;;;;;45.35;14.73;;;;;;;-149.78;100.00;50663.13;5114738;28;20031;-67
2021/12/27 00:55:09;;;;;;;59.67;14.57;;;;;;;-149.78;100.00;50667.03;5097039;28;20031;-68
2021/12/27 00:57:35;;;;;;;64.50;14.88;;;;;;;-149.78;100.00;50717.88;5115531;28;20360;-68
2021/12/27 01:00:00;;;;;;;47.13;13.15;;;;;;;-149.78;100.00;50647.47;5115458;28;20036;-67
2021/12/27 01:02:26;;;;;;;59.47;14.20;;;;;;;-149.78;100.00;50627.91;5113764;28;20051;-68
2021/12/27 01:04:52;;;;;;;47.60;12.70;;;;;;;-149.78;100.00;50647.47;5114173;28;20104;-69
2021/12/27 01:07:18;;;;;;;51.95;12.48;;;;;;;-149.78;100.00;50698.31;5113898;28;20487;-68
2021/12/27 01:10:15;;;;;;;53.45;15.20;;;;;;;-149.78;100.00;50639.66;5114778;28;20038;-64
2021/12/27 01:13:05;;;;;;;52.58;16.15;;;;;;;-149.78;100.00;50647.47;5115187;28;20085;-70
2021/12/27 01:18:01;;;;;;;53.72;15.63;;;;;;;-149.78;100.00;50659.19;5114932;28;20594;-69
2021/12/27 01:20:27;;;;;;;66.75;17.95;;;;;;;-149.78;100.00;50678.75;5115186;28;20122;-68
2021/12/27 01:22:54;;;;;;;40.33;12.88;;;;;;;-149.78;100.00;50665.06;5111666;28;20035;-68
2021/12/27 01:25:21;;;;;;;44.17;13.25;;;;;;;-149.78;100.00;50663.13;5113008;28;20393;-68
2021/12/27 01:27:47;;;;;;;40.88;12.77;;;;;;;-149.78;100.00;50678.75;5089857;28;20055;-63
2021/12/27 01:30:18;;;;;;;41.03;12.02;;;;;;;-149.78;100.00;50668.97;5112940;28;20070;-67
2021/12/27 01:32:48;;;;;;;43.67;11.77;;;;;;;-149.78;100.00;50651.38;5111811;28;20051;-67
2021/12/27 01:35:15;;;;;;;49.53;13.50;;;;;;;-149.78;100.00;50680.72;5111666;28;20409;-63
2021/12/27 01:37:41;;;;;;;44.45;13.52;;;;;;;-149.78;100.00;50647.47;5114396;28;20031;-63
2021/12/27 01:40:08;;;;;;;48.13;12.85;;;;;;;-149.78;100.00;50674.84;5114800;28;20042;-63
2021/12/27 01:42:34;;;;;;;47.42;13.60;;;;;;;-149.78;100.00;50643.56;5114500;28;20432;-63
2021/12/27 01:45:00;;;;;;;44.83;13.25;;;;;;;-149.78;100.00;50643.56;5096406;28;20085;-64
2021/12/27 01:47:28;;;;;;;43.20;12.68;;;;;;;-149.78;100.00;50624.00;5114748;28;20065;-63
2021/12/27 01:49:54;;;;;;;43.38;12.77;;;;;;;-149.78;100.00;50682.66;5114356;28;20027;-64
2021/12/27 01:52:20;;;;;;;52.10;14.35;;;;;;;-149.78;100.00;50627.91;5114345;28;20040;-63
2021/12/27 01:54:45;;;;;;;47.55;11.63;;;;;;;-149.78;100.00;50657.25;5114355;28;20067;-67
2021/12/27 01:57:11;;;;;;;40.50;11.80;;;;;;;-149.78;100.00;50670.94;5114101;28;20035;-63
2021/12/27 01:59:37;;;;;;;46.88;13.05;;;;;;;-149.78;100.00;50651.38;5114206;28;20032;-64
2021/12/27 02:02:04;;;;;;;42.03;12.27;;;;;;;-149.78;100.00;50647.47;5114092;28;20070;-64
2021/12/27 02:04:29;;;;;;;43.72;13.15;;;;;;;-149.78;100.00;50625.94;5114181;28;20036;-64
2021/12/27 02:06:55;;;;;;;43.28;13.88;;;;;;;-149.78;100.00;50620.09;5113547;28;20120;-67
2021/12/27 02:09:29;;;;;;;51.25;13.35;;;;;;;-149.78;100.00;50639.66;5114176;28;20073;-63
2021/12/27 02:11:55;;;;;;;41.58;12.27;;;;;;;-149.78;100.00;50647.47;5114016;28;20035;-64
2021/12/27 02:14:21;;;;;;;45.05;12.98;;;;;;;-149.78;100.00;50624.00;5113271;28;20059;-67
2021/12/27 02:16:46;;;;;;;46.13;12.82;;;;;;;-149.78;100.00;50655.28;5113982;28;20062;-64
2021/12/27 02:19:12;;;;;;;42.17;13.15;;;;;;;-149.78;100.00;50655.28;5114221;28;20390;-63
2021/12/27 02:21:37;;;;;;;51.65;15.07;;;;;;;-149.78;100.00;50639.66;5113790;28;20486;-64
2021/12/27 02:24:05;;;;;;;54.78;14.07;;;;;;;-149.78;100.00;50635.72;5077780;28;20470;-67
2021/12/27 02:26:31;;;;;;;47.55;13.95;;;;;;;-149.78;100.00;50663.13;5113706;28;20186;-68
2021/12/27 02:28:56;;;;;;;49.55;13.98;;;;;;;-149.78;100.00;50637.69;5113841;28;20156;-63
2021/12/27 02:31:22;;;;;;;54.97;14.70;;;;;;;-149.78;100.00;50655.28;5114133;28;20062;-68
2021/12/27 02:33:48;;;;;;;55.53;15.40;;;;;;;-149.78;100.00;50596.63;5113848;28;20080;-63
2021/12/27 02:36:14;;;;;;;51.70;14.50;;;;;;;-149.78;100.00;50627.91;5113846;28;20508;-63
2021/12/27 02:38:42;;;;;;;50.20;14.48;;;;;;;-149.78;100.00;50635.72;5113376;28;20119;-67
2021/12/27 02:41:09;;;;;;;39.85;13.48;;;;;;;-149.78;100.00;50659.19;5111788;28;20039;-67
2021/12/27 02:43:38;;;;;;;54.80;14.48;;;;;;;-149.78;100.00;50682.66;5113615;28;20458;-63
2021/12/27 02:46:06;;;;;;;57.80;15.10;;;;;;;-149.78;100.00;50659.19;5113474;28;20489;-63
2021/12/27 02:48:39;;;;;;;46.92;14.60;;;;;;;-149.78;100.00;50651.38;5113755;28;20339;-66
2021/12/27 02:51:05;;;;;;;53.08;14.90;;;;;;;-149.78;100.00;50655.28;5113510;28;20518;-67
2021/12/27 02:53:31;;;;;;;61.20;15.73;;;;;;;-149.78;100.00;50643.56;5113511;28;20031;-63
2021/12/27 02:55:58;;;;;;;51.88;14.52;;;;;;;-149.78;100.00;50653.34;5113643;28;20478;-67
2021/12/27 02:58:25;;;;;;;51.38;15.10;;;;;;;-149.78;100.00;50653.34;5113620;28;20035;-63
2021/12/27 03:01:01;;;;;;;51.58;15.13;;;;;;;-149.78;100.00;50655.28;5113515;28;20495;-66
2021/12/27 03:03:27;;;;;;;55.03;14.75;;;;;;;-149.78;100.00;50627.91;5113604;28;20498;-64
2021/12/27 03:05:53;;;;;;;53.83;16.10;;;;;;;-149.78;100.00;50670.94;5113216;28;20042;-63
2021/12/27 03:08:20;;;;;;;63.25;16.27;;;;;;;-149.78;100.00;50641.59;5113302;28;20039;-64
2021/12/27 03:10:49;;;;;;;58.88;16.92;;;;;;;-149.78;100.00;50643.56;5095475;28;20126;-63
2021/12/27 03:13:21;;;;;;;55.25;15.73;;;;;;;-149.78;100.00;50682.66;5113372;28;20052;-63
2021/12/27 03:15:52;;;;;;;55.40;16.30;;;;;;;-149.78;100.00;50667.03;5113342;28;20484;-63
2021/12/27 03:18:20;;;;;;;50.95;15.68;;;;;;;-149.78;100.00;50604.44;5113427;28;20450;-67
2021/12/27 03:20:48;;;;;;;51.15;15.15;;;;;;;-149.78;100.00;50655.28;5111273;28;20055;-63
2021/12/27 03:23:16;;;;;;;58.08;15.55;;;;;;;-149.78;100.00;50655.28;5111549;28;20034;-67
2021/12/27 03:25:42;;;;;;;55.38;16.88;;;;;;;-149.78;100.00;50655.28;5116460;28;20039;-63
2021/12/27 03:28:08;;;;;;;52.00;16.92;;;;;;;-149.78;100.00;50649.44;5098861;28;20035;-67
2021/12/27 03:30:34;;;;;;;61.60;15.70;;;;;;;-149.78;100.00;50667.03;5117179;28;20042;-67
2021/12/27 03:33:02;;;;;;;58.28;16.60;;;;;;;-149.78;100.00;50670.94;5117074;28;20146;-63
2021/12/27 03:35:34;;;;;;;52.15;15.30;;;;;;;-149.78;100.00;50670.94;5117267;28;20039;-68
2021/12/27 03:38:02;;;;;;;59.63;15.57;;;;;;;-149.78;100.00;50631.81;5116609;28;20465;-67
2021/12/27 03:40:28;;;;;;;50.55;15.02;;;;;;;-149.78;100.00;50643.56;5116020;28;20031;-64
2021/12/27 03:42:55;;;;;;;59.22;15.45;;;;;;;-149.78;100.00;50663.13;5116622;28;20454;-68
2021/12/27 03:45:24;;;;;;;57.10;14.55;;;;;;;-149.78;100.00;50667.03;5116908;28;20047;-63
2021/12/27 03:47:51;;;;;;;58.75;14.63;;;;;;;-149.78;100.00;50633.78;5116617;28;20028;-63
2021/12/27 03:50:17;;;;;;;53.30;15.00;;;;;;;-149.78;100.00;50624.00;5116815;28;20039;-63
2021/12/27 03:52:43;;;;;;;54.72;14.73;;;;;;;-149.78;100.00;50622.03;5116496;28;20038;-63
2021/12/27 03:55:11;;;;;;;56.90;15.73;;;;;;;-149.78;100.00;50659.19;5116550;28;20047;-63
2021/12/27 03:57:40;;;;;;;71.63;17.98;;;;;;;-149.78;100.00;50661.16;5114849;28;20367;-63
2021/12/27 04:02:48;;;;;;;58.78;15.48;;;;;;;-149.78;100.00;50678.75;5116130;28;20096;-63
2021/12/27 04:05:14;;;;;;;57.83;17.48;;;;;;;-149.78;100.00;50665.06;5116334;28;20040;-64
2021/12/27 04:07:41;;;;;;;59.28;17.15;;;;;;;-149.78;100.00;50659.19;5115749;28;20048;-63
2021/12/27 04:10:09;;;;;;;67.10;16.60;;;;;;;-149.78;100.00;50678.75;5116238;28;20066;-64
2021/12/27 04:12:36;;;;;;;53.05;15.68;;;;;;;-149.78;100.00;50670.94;5116279;28;20038;-63
2021/12/27 04:15:10;;;;;;;73.20;16.23;;;;;;;-149.78;100.00;50635.72;5113708;28;20040;-63
2021/12/27 04:17:40;;;;;;;60.03;15.70;;;;;;;-149.78;100.00;50604.44;5115793;28;20122;-63
2021/12/27 04:20:06;;;;;;;67.05;14.82;;;;;;;-149.78;100.00;50670.94;5115748;28;20035;-63
2021/12/27 04:22:33;;;;;;;59.03;13.35;;;;;;;-149.78;100.00;50674.84;5095698;28;20047;-63
2021/12/27 04:25:03;;;;;;;60.90;14.10;;;;;;;-149.78;100.00;50663.13;5115096;28;20066;-63
2021/12/27 04:27:29;;;;;;;55.20;14.15;;;;;;;-149.78;100.00;50620.09;5097347;28;20023;-63
2021/12/27 04:29:55;;;;;;;56.53;12.80;;;;;;;-149.78;100.00;50655.28;5115445;28;20035;-63
2021/12/27 04:32:21;;;;;;;65.65;12.95;;;;;;;-149.78;100.00;50678.75;5114786;28;20034;-63
2021/12/27 04:34:47;;;;;;;80.70;13.60;;;;;;;-149.78;100.00;50647.47;5115021;28;20040;-63
2021/12/27 04:37:13;;;;;;;66.13;15.68;;;;;;;-149.78;100.00;50655.28;5114485;28;20107;-63
2021/12/27 04:39:38;;;;;;;65.65;13.93;;;;;;;-149.78;100.00;50643.56;5115416;28;20096;-63
2021/12/27 04:42:09;;;;;;;72.45;13.55;;;;;;;-149.78;100.00;50647.47;5114504;28;20501;-63
2021/12/27 04:44:35;;;;;;;66.90;13.35;;;;;;;-149.78;100.00;50643.56;5115083;28;20058;-63
2021/12/27 04:47:01;;;;;;;48.45;13.48;;;;;;;-149.78;100.00;50647.47;5096993;28;20046;-67
2021/12/27 04:49:27;;;;;;;51.90;12.45;;;;;;;-149.78;100.00;50647.47;5115187;28;20059;-67
2021/12/27 04:51:53;;;;;;;43.05;12.35;;;;;;;-149.78;100.00;50643.56;5115078;28;20505;-68
2021/12/27 04:54:19;;;;;;;57.90;11.98;;;;;;;-149.78;100.00;50639.66;5097091;28;20123;-67
2021/12/27 04:56:46;;;;;;;41.60;11.60;;;;;;;-149.78;100.00;50616.19;5115043;28;20524;-67
2021/12/27 04:59:12;;;;;;;53.20;10.95;;;;;;;-149.78;100.00;50688.53;5115062;28;20039;-67
2021/12/27 05:01:39;;;;;;;59.42;11.90;;;;;;;-149.78;100.00;50659.19;5115030;28;20043;-67
2021/12/27 05:04:05;;;;;;;46.35;12.27;;;;;;;-149.78;100.00;50678.75;5115066;28;20554;-67
2021/12/27 05:06:31;;;;;;;43.08;11.23;;;;;;;-149.78;100.00;50655.28;5115258;28;20055;-68
2021/12/27 05:08:56;;;;;;;49.78;11.45;;;;;;;-149.78;100.00;50637.69;5115229;28;20027;-67
2021/12/27 05:11:22;;;;;;;45.10;11.02;;;;;;;-149.78;100.00;50645.50;5115255;28;20032;-67
2021/12/27 05:13:48;;;;;;;40.72;10.60;;;;;;;-149.78;100.00;50668.97;5115157;28;20104;-67
2021/12/27 05:16:13;;;;;;;43.58;10.52;;;;;;;-149.78;100.00;50655.28;5115100;28;20039;-67
2021/12/27 05:18:39;;;;;;;38.95;10.43;;;;;;;-149.78;100.00;50655.28;5114910;28;20035;-67
2021/12/27 05:21:05;;;;;;;38.88;10.45;;;;;;;-149.78;100.00;50682.66;5115082;28;20115;-67
2021/12/27 05:23:31;;;;;;;48.88;11.25;;;;;;;-149.78;100.00;50645.50;5115076;28;20051;-67
2021/12/27 05:25:57;;;;;;;46.25;11.23;;;;;;;-149.78;100.00;50633.78;5096872;28;20039;-67
2021/12/27 05:28:23;;;;;;;40.92;10.57;;;;;;;-149.78;100.00;50645.50;5114816;28;20035;-67
2021/12/27 05:30:51;;;;;;;38.70;11.15;;;;;;;-149.78;100.00;50639.66;5114927;28;20132;-68
2021/12/27 05:33:18;;;;;;;39.90;10.07;;;;;;;-149.78;100.00;50651.38;5114988;28;20040;-67
2021/12/27 05:35:45;;;;;;;38.20;10.77;;;;;;;-149.78;100.00;50655.28;5096677;28;20039;-67
2021/12/27 05:38:10;;;;;;;43.63;10.30;;;;;;;-149.78;100.00;50670.94;5114456;28;20100;-67
2021/12/27 05:40:37;;;;;;;40.40;10.13;;;;;;;-149.78;100.00;50635.72;5114549;28;20039;-67
2021/12/27 05:43:03;;;;;;;40.97;11.00;;;;;;;-149.78;100.00;50651.38;5114489;28;20048;-67
2021/12/27 05:45:29;;;;;;;46.92;11.60;;;;;;;-149.78;100.00;50643.56;5114507;28;20044;-67
2021/12/27 05:47:55;;;;;;;42.63;10.55;;;;;;;-149.78;100.00;50667.03;5114172;28;20035;-67
2021/12/27 05:50:21;;;;;;;42.15;9.18;;;;;;;-149.78;100.00;50655.28;5096389;28;20412;-68
2021/12/27 05:52:47;;;;;;;42.22;9.05;;;;;;;-149.78;100.00;50667.03;5114316;28;20036;-68
2021/12/27 05:55:13;;;;;;;36.20;8.07;;;;;;;-149.78;100.00;50674.84;5114380;28;20089;-68
2021/12/27 05:57:39;;;;;;;36.13;8.02;;;;;;;-149.78;100.00;50663.13;5114407;28;20074;-67
2021/12/27 06:00:08;;;;;;;34.33;8.05;;;;;;;-149.78;100.00;50643.56;5114308;28;20513;-67
2021/12/27 06:02:34;;;;;;;30.83;8.75;;;;;;;-149.78;100.00;50647.47;5114212;28;20539;-67
2021/12/27 06:04:59;;;;;;;29.80;7.43;;;;;;;-149.78;100.00;50674.84;5113985;28;20039;-67
2021/12/27 06:07:25;;;;;;;27.35;7.65;;;;;;;-149.78;100.00;50663.13;5113838;28;20043;-67
2021/12/27 06:09:50;;;;;;;31.25;8.18;;;;;;;-149.78;100.00;50624.00;5113993;28;20039;-67
2021/12/27 06:12:16;;;;;;;32.58;7.75;;;;;;;-149.78;100.00;50651.38;5114225;28;20039;-67
2021/12/27 06:14:41;;;;;;;32.42;7.13;;;;;;;-149.78;100.00;50651.38;5113870;28;20034;-67
2021/12/27 06:17:07;;;;;;;28.35;7.35;;;;;;;-149.78;100.00;50659.19;5113879;28;20370;-67
2021/12/27 06:19:33;;;;;;;22.77;6.53;;;;;;;-149.78;100.00;50649.44;5113714;28;20031;-68
2021/12/27 06:21:58;;;;;;;29.42;7.28;;;;;;;-149.78;100.00;50655.28;5113457;28;20474;-68
2021/12/27 06:24:24;;;;;;;28.00;7.30;;;;;;;-149.78;100.00;50659.19;5113428;28;20055;-67
2021/12/27 06:26:50;;;;;;;33.13;7.93;;;;;;;-149.78;100.00;50667.03;5113553;28;20118;-67
2021/12/27 06:29:15;;;;;;;25.60;6.65;;;;;;;-149.78;100.00;50655.28;5113551;28;20096;-67
2021/12/27 06:31:41;;;;;;;28.80;6.93;;;;;;;-149.78;100.00;50624.00;5113343;28;20433;-67
2021/12/27 06:34:07;;;;;;;31.80;7.43;;;;;;;-149.78;100.00;50657.25;5113544;28;20089;-67
2021/12/27 06:36:32;;;;;;;24.50;7.13;;;;;;;-149.78;100.00;50624.00;5113268;28;20064;-67
2021/12/27 06:38:59;;;;;;;29.42;6.50;;;;;;;-149.78;100.00;50663.13;5113487;28;20092;-67
2021/12/27 06:41:25;;;;;;;29.85;8.20;;;;;;;-149.78;100.00;50672.91;5113642;28;20126;-67
2021/12/27 06:43:52;;;;;;;28.73;6.82;;;;;;;-149.78;100.00;50670.94;5095489;28;20092;-67
2021/12/27 06:46:17;;;;;;;35.05;7.45;;;;;;;-149.78;100.00;50667.03;5113705;28;20043;-67
2021/12/27 06:48:43;;;;;;;25.02;7.20;;;;;;;-149.78;100.00;50647.47;5113651;28;20039;-67
2021/12/27 06:51:09;;;;;;;24.40;6.65;;;;;;;-149.78;100.00;50647.47;5095265;28;20115;-67
2021/12/27 06:53:35;;;;;;;27.13;6.05;;;;;;;-149.78;100.00;50659.19;5113568;28;20062;-67
2021/12/27 06:56:02;;;;;;;25.45;6.38;;;;;;;-149.78;100.00;50674.84;5113715;28;20047;-68
2021/12/27 06:58:28;;;;;;;24.38;6.57;;;;;;;-149.78;100.00;50667.03;5113444;28;20028;-67
2021/12/27 07:00:54;;;;;;;23.02;6.07;;;;;;;-149.78;100.00;50670.94;5117188;28;20049;-67
2021/12/27 07:03:19;;;;;;;21.85;6.78;;;;;;;-149.78;100.00;50653.34;5099115;28;20039;-67
2021/12/27 07:05:45;;;;;;;27.70;6.85;;;;;;;-149.78;100.00;50639.66;5117517;28;20054;-67
2021/12/27 07:08:11;;;;;;;25.58;6.13;;;;;;;-149.78;100.00;50641.59;5117900;28;20024;-68
2021/12/27 07:10:37;;;;;;;21.05;5.70;;;;;;;-149.78;100.00;50643.56;5117740;28;20114;-67
2021/12/27 07:13:06;;;;;;;26.45;5.30;;;;;;;-149.78;100.00;50643.56;5117730;28;20035;-67
2021/12/27 07:15:32;;;;;;;23.23;5.40;;;;;;;-149.78;100.00;50659.19;5117580;28;20043;-67
2021/12/27 07:17:58;;;;;;;23.20;5.95;;;;;;;-149.78;100.00;50659.19;5117472;28;20086;-63
2021/12/27 07:20:24;;;;;;;29.60;5.43;;;;;;;-149.78;100.00;50631.81;5117388;28;20081;-64
2021/12/27 07:22:50;;;;;;;25.73;5.82;;;;;;;-149.78;100.00;50659.19;5117458;28;20105;-63
2021/12/27 07:25:16;;;;;;;32.60;6.20;;;;;;;-149.78;100.00;50657.25;5117577;28;20082;-64
2021/12/27 07:27:42;;;;;;;21.15;5.70;;;;;;;-149.78;100.00;50610.31;5117207;28;20739;-63
2021/12/27 07:30:11;;;;;;;29.50;6.20;;;;;;;-149.78;100.00;50663.13;5117219;28;20385;-63
2021/12/27 07:32:38;;;;;;;24.98;7.05;;;;;;;-149.78;100.00;50639.66;5117145;28;20036;-63
2021/12/27 07:35:05;;;;;;;30.02;5.88;;;;;;;-149.78;100.00;50620.09;5117173;28;20119;-63
2021/12/27 07:37:31;;;;;;;25.27;6.03;;;;;;;-149.78;100.00;50667.03;5098601;28;20042;-63
2021/12/27 07:39:56;;;;;;;24.48;5.68;;;;;;;-149.78;100.00;50647.47;5117047;28;20121;-64
2021/12/27 07:42:22;;;;;;;27.30;5.95;;;;;;;-149.78;100.00;50620.09;5116908;28;20355;-63
2021/12/27 07:44:48;;;;;;;25.50;6.70;;;;;;;-149.78;100.00;50674.84;5116969;28;20111;-67
2021/12/27 07:47:14;;;;;;;27.38;6.40;;;;;;;-149.78;100.00;50651.38;5117056;28;20031;-67
2021/12/27 07:49:40;;;;;;;26.63;6.32;;;;;;;-149.78;100.00;50678.75;5116786;28;20115;-67
2021/12/27 07:52:07;;;;;;;38.97;8.07;;;;;;;-149.78;100.00;50651.38;5116846;28;20039;-66
2021/12/27 07:54:34;;;;;;;39.50;7.30;;;;;;;-149.78;100.00;50698.31;5098529;28;20044;-67
2021/12/27 07:57:00;;;;;;;43.00;7.00;;;;;;;-149.78;100.00;50682.66;5098586;28;20374;-67
2021/12/27 07:59:27;;;;;;;31.33;7.38;;;;;;;-149.78;100.00;50659.19;5116562;28;20478;-67
2021/12/27 08:01:53;;;;;;;36.58;6.90;;;;;;;-149.78;100.00;50670.94;5116594;28;20036;-67
2021/12/27 08:04:19;;;;;;;55.90;7.75;;;;;;;-149.78;100.00;50637.69;5116546;28;20363;-66
2021/12/27 08:06:44;;;;;;;47.30;7.63;;;;;;;-149.78;100.00;50653.34;5116172;28;20075;-66
2021/12/27 08:09:10;;;;;;;38.97;8.43;;;;;;;-149.78;100.00;50674.84;5116359;28;20044;-67
2021/12/27 08:11:36;;;;;;;35.13;6.43;;;;;;;-149.78;100.00;50682.66;5114438;28;20040;-68
2021/12/27 08:14:03;;;;;;;30.17;6.55;;;;;;;-149.78;100.00;50637.69;5114568;28;20173;-68
2021/12/27 08:16:29;;;;;;;25.73;6.45;;;;;;;-149.78;100.00;50659.19;5115227;28;20035;-67
2021/12/27 08:18:55;;;;;;;24.73;5.75;;;;;;;-149.78;100.00;50655.28;5115001;28;20032;-67
2021/12/27 08:21:22;;;;;;;24.67;6.18;;;;;;;-149.78;100.00;50676.81;5115054;28;20031;-67
2021/12/27 08:23:48;;;;;;;17.50;5.25;;;;;;;-149.78;100.00;50686.59;5096839;28;20046;-67
2021/12/27 08:26:14;;;;;;;23.15;6.28;;;;;;;-149.78;100.00;50655.28;5097082;28;20036;-67
2021/12/27 08:28:41;;;;;;;20.00;5.75;;;;;;;-149.78;100.00;50667.03;5115127;28;20063;-67
2021/12/27 08:31:06;;;;;;;25.10;6.32;;;;;;;-149.78;100.00;50641.59;5097416;28;20375;-67
2021/12/27 08:33:32;;;;;;;16.50;5.13;;;;;;;-149.78;100.00;50659.19;5097493;28;20047;-67
2021/12/27 08:35:57;;;;;;;20.65;5.68;;;;;;;-149.78;100.00;50674.84;5115694;28;20039;-63
2021/12/27 08:38:23;;;;;;;22.73;6.07;;;;;;;-149.78;100.00;50653.34;5114244;28;20111;-63
2021/12/27 08:40:49;;;;;;;20.83;5.97;;;;;;;-149.78;100.00;50678.75;5115578;28;20403;-63
2021/12/27 08:43:15;;;;;;;23.40;6.15;;;;;;;-149.78;100.00;50667.03;5115570;28;20031;-64
2021/12/27 08:45:40;;;;;;;22.70;6.45;;;;;;;-149.78;100.00;50649.44;5112181;28;20046;-63
2021/12/27 08:48:06;;;;;;;22.17;6.57;;;;;;;-149.78;100.00;50649.44;5113517;28;20023;-64
2021/12/27 08:50:33;;;;;;;25.48;6.57;;;;;;;-149.78;100.00;50659.19;5113631;28;20038;-62
2021/12/27 08:52:58;;;;;;;29.15;6.70;;;;;;;-149.78;100.00;50631.81;5095026;28;20122;-69
2021/12/27 08:55:24;;;;;;;22.42;6.43;;;;;;;-149.78;100.00;50635.72;5113516;28;20036;-67
2021/12/27 08:57:50;;;;;;;27.98;6.05;;;;;;;-149.78;100.00;50672.91;5113616;28;20114;-69
2021/12/27 09:00:16;;;;;;;24.42;6.43;;;;;;;-149.78;100.00;50651.38;5112447;28;20121;-66
2021/12/27 09:02:43;;;;;;;29.15;8.02;;;;;;;-149.78;100.00;50682.66;5112155;28;20024;-70
2021/12/27 09:05:09;;;;;;;28.00;7.55;;;;;;;-149.78;100.00;50657.25;5096084;28;20114;-72
2021/12/27 09:07:35;;;;;;;27.83;7.57;;;;;;;-149.78;100.00;50670.94;5113212;28;20134;-68
2021/12/27 09:10:02;;;;;;;39.67;8.02;;;;;;;-149.78;100.00;50665.06;5111555;28;20028;-67
2021/12/27 09:12:28;;;;;;;24.05;8.07;;;;;;;-149.78;100.00;50612.25;5095563;28;20034;-71
2021/12/27 09:14:54;;;;;;;26.88;7.97;;;;;;;-149.78;100.00;50639.66;5113241;28;20400;-69
2021/12/27 09:17:19;;;;;;;27.48;7.10;;;;;;;-149.78;100.00;50647.47;5113933;28;20044;-70
2021/12/27 09:19:45;;;;;;;28.00;6.95;;;;;;;-149.78;100.00;50676.81;5114108;28;20055;-70
2021/12/27 09:22:13;;;;;;;30.10;7.75;;;;;;;-149.78;100.00;50647.47;5112871;28;20104;-63
2021/12/27 09:24:39;;;;;;;31.27;8.07;;;;;;;-149.78;100.00;50665.06;5113861;28;20385;-65
2021/12/27 09:27:05;;;;;;;26.52;7.97;;;;;;;-149.78;100.00;50663.13;5113811;28;20462;-64
2021/12/27 09:29:31;;;;;;;32.28;7.93;;;;;;;-149.78;100.00;50670.94;5095398;28;20062;-62
2021/12/27 09:31:57;;;;;;;43.58;7.15;;;;;;;-149.78;100.00;50641.59;5113529;28;20031;-64
2021/12/27 09:34:23;;;;;;;37.47;7.60;;;;;;;-149.78;100.00;50641.59;5111543;28;20028;-64
2021/12/27 09:36:49;;;;;;;37.13;7.53;;;;;;;-149.78;100.00;50670.94;5112736;28;20038;-63
2021/12/27 09:39:15;;;;;;;27.98;6.93;;;;;;;-149.78;100.00;50674.84;5112675;28;20102;-64
2021/12/27 09:41:41;;;;;;;48.55;12.98;;;;;;;-149.78;100.00;50667.03;5112577;28;20042;-62
2021/12/27 09:44:07;;;;;;;26.67;7.82;;;;;;;-149.78;100.00;50635.72;5112292;28;20525;-62
2021/12/27 09:46:33;;;;;;;31.95;8.45;;;;;;;-149.78;100.00;50651.38;5094446;28;20101;-62
2021/12/27 09:49:02;;;;;;;24.88;6.82;;;;;;;-149.78;100.00;50659.19;5110665;28;20031;-64
2021/12/27 09:51:30;;;;;;;27.23;7.15;;;;;;;-149.78;100.00;50651.38;5108661;27;20510;-64
2021/12/27 09:53:56;;;;;;;29.50;7.10;;;;;;;-149.78;100.00;50655.28;5096313;28;20110;-66
2021/12/27 09:56:22;;;;;;;25.05;6.25;;;;;;;-149.78;100.00;50667.03;5111288;28;20039;-65
2021/12/27 09:58:48;;;;;;;26.95;7.38;;;;;;;-149.78;100.00;50639.66;5110085;28;20039;-67
2021/12/27 10:01:14;;;;;;;44.97;8.18;;;;;;;-149.78;100.00;50670.94;5110816;28;20028;-66
2021/12/27 10:03:47;;;;;;;28.08;7.85;;;;;;;-149.78;100.00;50645.50;5110742;28;20062;-65
2021/12/27 10:06:13;;;;;;;31.42;8.27;;;;;;;-149.78;100.00;50661.16;5110448;28;20075;-65
2021/12/27 10:08:44;;;;;;;29.42;7.20;;;;;;;-149.78;100.00;50643.56;5108806;28;20558;-65
2021/12/27 10:11:31;;;;;;;30.10;8.05;;;;;;;-149.78;100.00;50651.38;5110245;28;20455;-65
2021/12/27 10:14:12;;;;;;;27.48;6.80;;;;;;;-149.78;100.00;50661.16;5107361;28;20043;-69
2021/12/27 10:16:41;;;;;;;26.02;7.80;;;;;;;-149.78;100.00;50663.13;5111021;28;20027;-67
2021/12/27 10:19:09;;;;;;;32.65;7.57;;;;;;;-149.78;100.00;50659.19;5108610;28;20055;-65
2021/12/27 10:21:35;;;;;;;30.20;8.10;;;;;;;-149.78;100.00;50622.03;5093088;28;20031;-70
2021/12/27 10:24:02;;;;;;;28.35;7.20;;;;;;;-149.78;100.00;50672.91;5112068;28;20039;-66
2021/12/27 10:26:30;;;;;;;32.88;7.38;;;;;;;-149.78;100.00;50661.16;5113827;28;20370;-65
2021/12/27 10:29:12;;;;;;;26.85;7.70;;;;;;;-149.78;100.00;50661.16;5112996;28;20038;-69
2021/12/27 10:31:56;;;;;;;;;;;;;;;-149.78;100.00;50655.28;5110397;28;20031;-68
2021/12/27 10:34:27;;;;;;;31.38;6.68;;;;;;;-149.78;100.00;50651.38;5111535;28;19994;-69
2021/12/27 10:37:32;;;;;;;31.05;7.75;;;;;;;-149.78;100.00;50639.66;5113376;28;20482;-70
2021/12/27 10:40:03;;;;;;;27.38;6.97;;;;;;;-149.78;100.00;50667.03;5113458;28;20040;-70
2021/12/27 10:42:35;;;;;;;30.60;7.78;;;;;;;-149.78;100.00;50647.47;5112771;28;20027;-68
2021/12/27 10:45:24;;;;;;;25.73;6.95;;;;;;;-149.78;100.00;50641.59;5112582;28;20114;-67
2021/12/27 10:47:57;;;;;;;29.75;6.88;;;;;;;-149.78;100.00;50657.25;5111740;28;20443;-67
2021/12/27 10:50:25;;;;;;;33.65;7.90;;;;;;;-149.78;100.00;50678.75;5096525;28;20032;-67
2021/12/27 10:52:54;;;;;;;28.95;7.45;;;;;;;-149.78;100.00;50653.34;5097861;28;20027;-69
2021/12/27 10:55:23;;;;;;;32.65;7.47;;;;;;;-149.78;100.00;50625.94;5113494;28;20450;-66
2021/12/27 10:57:50;;;;;;;35.10;7.50;;;;;;;-149.78;100.00;50667.03;5094864;28;20044;-70
2021/12/27 11:00:20;;;;;;;33.17;8.10;;;;;;;-149.78;100.00;50678.75;5113318;28;20071;-69
2021/12/27 11:02:46;;;;;;;39.22;8.10;;;;;;;-149.78;100.00;50635.72;5113434;28;20409;-67